Time;durP1;ratioP1;P1;durP2;ratioP2;P2;SDS_P1;SDS_P2;PMS_P1;PMS_P2;Temp;Humidity;BMP_temperature;BMP_pressure;BME280_temperature;BME280_humidity;BME280_pressure;Samples;Min_cycle;Max_cycle;Signal;HPM_P1;HPM_P2
2022/01/12 00:00:58;;;;;;;14.27;7.23;;;2.00;99.90;;;;;;4995591;28;20046;-68
2022/01/12 00:03:25;;;;;;;11.90;6.23;;;2.00;99.90;;;;;;4995297;28;20538;-68
2022/01/12 00:05:52;;;;;;;14.67;6.77;;;2.00;99.90;;;;;;4995476;28;20146;-68
2022/01/12 00:08:19;;;;;;;15.23;7.47;;;1.90;99.90;;;;;;4995572;28;20495;-68
2022/01/12 00:10:46;;;;;;;11.00;5.77;;;1.90;99.90;;;;;;4995480;28;20606;-68
2022/01/12 00:13:13;;;;;;;16.50;6.53;;;1.90;99.90;;;;;;4995248;28;20145;-68
2022/01/12 00:15:41;;;;;;;12.83;6.10;;;1.90;99.90;;;;;;4995399;28;20153;-68
2022/01/12 00:18:10;;;;;;;11.90;5.60;;;1.90;99.90;;;;;;4995133;28;20133;-68
2022/01/12 00:20:42;;;;;;;12.20;6.50;;;1.90;99.90;;;;;;4995021;28;20042;-68
2022/01/12 00:23:09;;;;;;;14.57;6.67;;;2.00;99.90;;;;;;4995343;28;20058;-68
2022/01/12 00:25:56;;;;;;;14.20;7.17;;;2.00;99.90;;;;;;4994883;28;20093;-68
2022/01/12 00:33:57;;;;;;;13.63;7.77;;;1.70;99.90;;;;;;4995180;28;20065;-68
2022/01/12 00:36:28;;;;;;;12.43;6.30;;;1.70;99.90;;;;;;4994615;28;20061;-68
2022/01/12 00:38:55;;;;;;;11.27;6.10;;;1.70;99.90;;;;;;4993832;28;20494;-68
2022/01/12 00:41:22;;;;;;;14.47;6.93;;;1.80;99.90;;;;;;4994580;28;20054;-68
2022/01/12 00:43:56;;;;;;;13.40;6.80;;;1.70;99.90;;;;;;4994899;28;20467;-68
2022/01/12 00:46:25;;;;;;;16.20;7.37;;;1.60;99.90;;;;;;4995151;28;20523;-68
2022/01/12 00:48:57;;;;;;;14.90;7.70;;;1.50;99.90;;;;;;4995626;28;20137;-68
2022/01/12 00:51:26;;;;;;;15.53;7.33;;;1.30;99.90;;;;;;5004053;28;20514;-68
2022/01/12 00:53:54;;;;;;;20.83;8.83;;;1.20;99.90;;;;;;4998310;28;20058;-68
2022/01/12 00:56:21;;;;;;;17.60;8.67;;;1.10;99.90;;;;;;4995637;28;20495;-68
2022/01/12 00:58:48;;;;;;;18.23;8.43;;;0.90;99.90;;;;;;4995210;28;20056;-68
2022/01/12 01:01:15;;;;;;;15.83;7.73;;;0.80;99.90;;;;;;4995004;28;20553;-68
2022/01/12 01:03:43;;;;;;;18.77;8.57;;;0.80;99.90;;;;;;4994358;28;20134;-68
2022/01/12 01:06:13;;;;;;;16.73;7.87;;;0.90;99.90;;;;;;4994323;28;20050;-68
2022/01/12 01:08:43;;;;;;;19.60;9.30;;;0.90;99.90;;;;;;4994634;28;20137;-68
2022/01/12 01:11:11;;;;;;;18.67;7.97;;;0.80;99.90;;;;;;4994515;28;20069;-68
2022/01/12 01:13:48;;;;;;;15.83;8.53;;;0.70;99.90;;;;;;4994589;28;20116;-68
2022/01/12 01:16:20;;;;;;;17.05;8.77;;;0.60;99.90;;;;;;4994529;28;20057;-68
2022/01/12 01:27:02;;;;;;;18.27;8.47;;;0.40;99.90;;;;;;4994244;28;20080;-68
2022/01/12 01:29:29;;;;;;;16.93;8.33;;;0.40;99.90;;;;;;4993910;28;20137;-68
2022/01/12 01:31:57;;;;;;;19.80;8.67;;;0.40;99.90;;;;;;4993999;28;20137;-68
2022/01/12 01:34:27;;;;;;;18.87;8.43;;;0.30;99.90;;;;;;4994104;28;20092;-68
2022/01/12 01:36:56;;;;;;;16.77;8.00;;;0.50;99.90;;;;;;5003229;28;20066;-69
2022/01/12 01:39:25;;;;;;;15.60;8.50;;;0.40;99.90;;;;;;5006091;28;20085;-68
2022/01/12 01:41:55;;;;;;;16.97;8.63;;;0.40;99.90;;;;;;4993749;28;20078;-68
2022/01/12 01:55:26;;;;;;;16.97;7.80;;;0.20;99.90;;;;;;4993509;28;20054;-68
2022/01/12 01:57:53;;;;;;;18.13;8.83;;;0.10;99.90;;;;;;4993557;28;20157;-68
2022/01/12 02:00:23;;;;;;;22.03;9.17;;;0.00;99.90;;;;;;4993381;28;20459;-68
2022/01/12 02:02:50;;;;;;;19.90;8.80;;;0.00;99.90;;;;;;4993688;28;20054;-68
2022/01/12 02:05:19;;;;;;;18.83;9.43;;;0.10;99.90;;;;;;4993509;28;20076;-68
2022/01/12 02:07:46;;;;;;;19.73;9.43;;;0.00;99.90;;;;;;4993365;28;20133;-67
2022/01/12 02:10:12;;;;;;;19.67;9.97;;;0.00;99.90;;;;;;4993338;28;20487;-67
2022/01/12 02:12:40;;;;;;;17.83;9.37;;;0.00;99.90;;;;;;4993774;28;20270;-67
2022/01/12 02:15:15;;;;;;;19.50;9.40;;;0.00;99.90;;;;;;4993041;28;20139;-67
2022/01/12 02:17:57;;;;;;;16.03;8.80;;;0.10;99.90;;;;;;4993436;28;20128;-68
2022/01/12 02:35:11;;;;;;;19.97;8.93;;;0.10;99.90;;;;;;4993206;28;20050;-68
2022/01/12 02:37:15;;;;;;;14.10;7.67;;;0.30;99.90;;;;;;4994295;28;20096;-67
2022/01/12 02:39:55;;;;;;;16.53;7.33;;;0.40;99.90;;;;;;4994778;28;20052;-67
2022/01/12 02:42:23;;;;;;;14.37;7.57;;;0.40;99.90;;;;;;4994478;28;20054;-67
2022/01/12 02:55:46;;;;;;;14.73;7.30;;;0.50;99.90;;;;;;4993723;28;20073;-67
2022/01/12 02:58:13;;;;;;;14.17;7.40;;;0.40;99.90;;;;;;4993338;28;20057;-67
2022/01/12 03:01:01;;;;;;;13.03;7.20;;;0.40;99.90;;;;;;4991648;28;20050;-67
2022/01/12 03:03:32;;;;;;;13.37;6.87;;;0.40;99.90;;;;;;4992217;28;20070;-68
2022/01/12 03:06:01;;;;;;;16.87;7.63;;;0.40;99.90;;;;;;4993065;28;20069;-68
2022/01/12 03:08:29;;;;;;;13.07;6.67;;;0.40;99.90;;;;;;4992698;28;20117;-67
2022/01/12 03:10:57;;;;;;;14.17;6.97;;;0.40;99.90;;;;;;4992559;28;20086;-67
2022/01/12 03:13:24;;;;;;;13.07;7.93;;;0.50;99.90;;;;;;4992431;28;20133;-67
2022/01/12 03:15:51;;;;;;;14.97;7.00;;;0.40;99.90;;;;;;4992225;28;20541;-67
2022/01/12 03:18:18;;;;;;;12.07;7.17;;;0.50;99.90;;;;;;4992031;28;20090;-67
2022/01/12 03:20:46;;;;;;;14.33;7.23;;;0.50;99.90;;;;;;4992159;28;20522;-67
2022/01/12 03:23:15;;;;;;;14.07;7.07;;;0.60;99.90;;;;;;4992071;28;20051;-67
2022/01/12 03:25:42;;;;;;;16.93;7.97;;;0.50;99.90;;;;;;4992138;28;20054;-67
2022/01/12 03:28:10;;;;;;;14.23;7.60;;;0.40;99.90;;;;;;4992161;28;20146;-68
2022/01/12 03:30:51;;;;;;;15.97;7.93;;;0.40;99.90;;;;;;4992245;28;20050;-68
2022/01/12 03:33:33;;;;;;;15.53;7.97;;;0.50;99.90;;;;;;4992449;28;20062;-68
2022/01/12 03:36:24;;;;;;;15.13;7.80;;;0.50;99.90;;;;;;4992325;28;20160;-68
2022/01/12 03:38:53;;;;;;;15.87;7.87;;;0.50;99.90;;;;;;4992246;28;20509;-68
2022/01/12 03:41:21;;;;;;;13.13;7.33;;;0.50;99.90;;;;;;4991828;28;20054;-68
2022/01/12 03:43:49;;;;;;;15.77;7.87;;;0.50;99.90;;;;;;4992184;28;20108;-68
2022/01/12 03:46:24;;;;;;;14.20;8.00;;;0.50;99.90;;;;;;5085921;23;20098;-71
2022/01/12 03:48:51;;;;;;;15.07;7.53;;;0.40;99.90;;;;;;4956002;29;20098;-72
2022/01/12 03:51:19;;;;;;;13.63;7.60;;;0.50;99.90;;;;;;4957365;29;20047;-72
2022/01/12 03:53:45;;;;;;;15.83;7.97;;;0.40;99.90;;;;;;4937660;29;20468;-71
2022/01/12 03:56:13;;;;;;;14.33;7.77;;;0.30;99.90;;;;;;4938136;29;20120;-71
2022/01/12 03:58:40;;;;;;;14.43;7.97;;;0.30;99.90;;;;;;4937998;29;20075;-71
2022/01/12 04:01:08;;;;;;;15.17;8.03;;;0.20;99.90;;;;;;4935112;29;20511;-71
2022/01/12 04:03:40;;;;;;;14.67;7.90;;;0.20;99.90;;;;;;4944685;29;20082;-71
2022/01/12 04:08:56;;;;;;;13.23;7.13;;;0.20;99.90;;;;;;4919458;29;20047;-71
2022/01/12 04:11:23;;;;;;;13.70;6.47;;;0.20;99.90;;;;;;4948710;29;20484;-72
2022/01/12 04:13:50;;;;;;;12.73;6.57;;;0.20;99.90;;;;;;4933441;29;20465;-71
2022/01/12 04:16:19;;;;;;;15.00;7.23;;;0.20;99.90;;;;;;4941483;29;20118;-71
2022/01/12 04:18:46;;;;;;;13.10;6.70;;;0.30;99.90;;;;;;4941357;29;20047;-72
2022/01/12 04:21:13;;;;;;;11.83;7.20;;;0.30;99.90;;;;;;4941377;29;20137;-71
2022/01/12 04:23:42;;;;;;;13.63;6.50;;;0.20;99.90;;;;;;4938095;29;20131;-72
2022/01/12 04:26:13;;;;;;;13.20;6.93;;;0.10;99.90;;;;;;4940501;29;20059;-71
2022/01/12 04:28:43;;;;;;;14.23;7.40;;;0.10;99.90;;;;;;4941601;29;20060;-72
2022/01/12 04:31:11;;;;;;;12.90;6.70;;;0.10;99.90;;;;;;4941392;29;20075;-71
2022/01/12 04:33:41;;;;;;;12.27;7.47;;;0.10;99.90;;;;;;4940808;29;20130;-72
2022/01/12 04:36:09;;;;;;;14.57;7.50;;;0.10;99.90;;;;;;4940677;29;20508;-74
2022/01/12 04:38:38;;;;;;;16.30;8.33;;;0.20;99.90;;;;;;4940751;29;20078;-71
2022/01/12 04:41:08;;;;;;;13.47;7.13;;;0.20;99.90;;;;;;4940421;29;20130;-72
2022/01/12 04:43:36;;;;;;;15.77;8.07;;;0.20;99.90;;;;;;4940479;29;20079;-71
2022/01/12 04:46:22;;;;;;;12.53;7.00;;;0.20;99.90;;;;;;4940557;29;20420;-71
2022/01/12 04:48:55;;;;;;;14.23;7.67;;;0.30;99.90;;;;;;4940130;29;20055;-71
2022/01/12 04:51:23;;;;;;;13.97;7.60;;;0.20;99.90;;;;;;4940484;29;20070;-72
2022/01/12 04:53:50;;;;;;;15.00;8.03;;;0.30;99.90;;;;;;4940682;29;20439;-71
2022/01/12 04:56:17;;;;;;;18.93;10.00;;;0.40;99.90;;;;;;4939871;29;20052;-72
2022/01/12 04:58:44;;;;;;;16.13;8.00;;;0.50;99.90;;;;;;4940679;29;20497;-71
2022/01/12 05:01:21;;;;;;;17.80;9.20;;;0.50;99.90;;;;;;4940402;29;20087;-71
2022/01/12 05:06:49;;;;;;;18.47;10.03;;;0.40;99.90;;;;;;4940276;29;20059;-71
2022/01/12 05:09:40;;;;;;;17.00;9.70;;;0.40;99.90;;;;;;4940202;29;20135;-72
2022/01/12 05:15:02;;;;;;;17.00;8.03;;;0.50;99.90;;;;;;4940354;29;20537;-72
2022/01/12 05:17:29;;;;;;;18.33;8.97;;;0.50;99.90;;;;;;4940429;29;20146;-72
2022/01/12 05:19:58;;;;;;;17.13;9.33;;;0.50;99.90;;;;;;4940105;29;20134;-72
2022/01/12 05:22:25;;;;;;;18.73;9.70;;;0.50;99.90;;;;;;4939599;29;20492;-72
2022/01/12 05:24:52;;;;;;;18.33;8.40;;;0.50;99.90;;;;;;4939272;29;20086;-72
2022/01/12 05:27:19;;;;;;;15.50;8.30;;;0.50;99.90;;;;;;4940480;29;20059;-73
2022/01/12 05:29:46;;;;;;;15.07;8.03;;;0.40;99.90;;;;;;4940394;29;20083;-71
2022/01/12 05:32:13;;;;;;;17.10;8.30;;;0.40;99.90;;;;;;4939906;29;20094;-70
2022/01/12 05:34:41;;;;;;;15.17;7.93;;;0.50;99.90;;;;;;4940103;29;20062;-71
2022/01/12 05:37:09;;;;;;;15.93;8.27;;;0.40;99.90;;;;;;4939581;29;20079;-71
2022/01/12 05:39:38;;;;;;;16.73;8.67;;;0.40;99.90;;;;;;4940281;29;20482;-71
2022/01/12 05:42:05;;;;;;;15.03;8.63;;;0.40;99.90;;;;;;4939857;29;20047;-72
2022/01/12 05:44:34;;;;;;;15.17;8.53;;;0.50;99.90;;;;;;4939483;29;20107;-72
2022/01/12 05:47:03;;;;;;;17.40;8.87;;;0.40;99.90;;;;;;4939346;29;20056;-73
2022/01/12 05:49:36;;;;;;;16.57;8.23;;;0.40;99.90;;;;;;4940018;29;20135;-72
2022/01/12 05:52:04;;;;;;;15.67;8.20;;;0.40;99.90;;;;;;4939908;29;20073;-74
2022/01/12 05:54:32;;;;;;;14.03;7.83;;;0.40;99.90;;;;;;4939517;29;20087;-74
2022/01/12 05:56:59;;;;;;;15.87;8.03;;;0.40;99.90;;;;;;4940090;29;20083;-71
2022/01/12 05:59:26;;;;;;;16.27;8.13;;;0.50;99.90;;;;;;4937745;29;20083;-73
2022/01/12 06:01:53;;;;;;;14.83;7.43;;;0.40;99.90;;;;;;4935313;29;20498;-72
2022/01/12 06:04:20;;;;;;;13.20;7.10;;;0.40;99.90;;;;;;4935378;29;20094;-73
2022/01/12 06:06:47;;;;;;;16.13;7.50;;;0.30;99.90;;;;;;4935331;29;20135;-73
2022/01/12 06:09:14;;;;;;;14.43;7.47;;;0.30;99.90;;;;;;4935316;29;20139;-72
2022/01/12 06:11:42;;;;;;;14.87;8.27;;;0.30;99.90;;;;;;4935176;29;20146;-72
2022/01/12 06:14:10;;;;;;;14.50;7.30;;;0.30;99.90;;;;;;4935246;29;20486;-72
2022/01/12 06:16:37;;;;;;;15.70;7.07;;;0.30;99.90;;;;;;4935187;29;20079;-71
2022/01/12 06:19:04;;;;;;;16.73;6.67;;;0.30;99.90;;;;;;4935166;29;20136;-73
2022/01/12 06:21:31;;;;;;;12.67;7.03;;;0.30;99.90;;;;;;4934960;29;20047;-72
2022/01/12 06:23:58;;;;;;;12.17;6.23;;;0.30;99.90;;;;;;4935082;29;20111;-72
2022/01/12 06:26:26;;;;;;;14.43;7.43;;;0.30;99.90;;;;;;4934587;29;20134;-73
2022/01/12 06:29:23;;;;;;;17.67;7.50;;;0.20;99.90;;;;;;4935064;29;20051;-73
2022/01/12 06:31:56;;;;;;;13.18;7.53;;;0.20;99.90;;;;;;4935275;29;20086;-71
2022/01/12 06:34:24;;;;;;;14.63;6.83;;;0.20;99.90;;;;;;4934982;29;20237;-73
2022/01/12 06:36:51;;;;;;;13.60;7.37;;;0.20;99.90;;;;;;4935738;29;20106;-72
2022/01/12 06:39:20;;;;;;;16.63;8.00;;;0.30;99.90;;;;;;4937522;29;20135;-71
2022/01/12 06:41:48;;;;;;;16.13;8.17;;;0.20;99.90;;;;;;4937370;29;20134;-72
2022/01/12 06:44:20;;;;;;;13.73;7.63;;;0.30;99.90;;;;;;4937904;29;20057;-71
2022/01/12 06:46:48;;;;;;;15.90;7.93;;;0.40;99.90;;;;;;4937333;29;20245;-73
2022/01/12 06:49:17;;;;;;;17.53;7.83;;;0.30;99.90;;;;;;4938873;29;20051;-71
2022/01/12 06:51:44;;;;;;;14.73;7.13;;;0.30;99.90;;;;;;4938657;29;20103;-71
2022/01/12 06:54:14;;;;;;;14.00;7.23;;;0.30;99.90;;;;;;4938323;29;20079;-75
2022/01/12 06:56:41;;;;;;;12.53;7.03;;;0.40;99.90;;;;;;4937926;29;20083;-71
2022/01/12 06:59:27;;;;;;;14.33;7.67;;;0.40;99.90;;;;;;4938561;29;20110;-71
2022/01/12 07:01:55;;;;;;;13.13;6.17;;;0.40;99.90;;;;;;4939176;29;20054;-71
2022/01/12 07:04:24;;;;;;;12.23;6.50;;;0.40;99.90;;;;;;4938956;29;20048;-71
2022/01/12 07:06:52;;;;;;;12.97;6.87;;;0.30;99.90;;;;;;4937454;29;20115;-72
2022/01/12 07:09:19;;;;;;;13.03;6.37;;;0.40;99.90;;;;;;4936611;29;20048;-72
2022/01/12 07:11:47;;;;;;;13.00;6.83;;;0.30;99.90;;;;;;4934652;29;20091;-71
2022/01/12 07:14:14;;;;;;;13.67;6.83;;;0.30;99.90;;;;;;4934777;29;20062;-72
2022/01/12 07:16:44;;;;;;;14.13;7.10;;;0.20;99.90;;;;;;4934286;29;20142;-72
2022/01/12 07:19:12;;;;;;;17.57;7.33;;;0.30;99.90;;;;;;4934391;29;20130;-71
2022/01/12 07:21:41;;;;;;;14.67;7.70;;;0.20;99.90;;;;;;4934299;29;20448;-72
2022/01/12 07:24:10;;;;;;;16.67;7.37;;;0.30;99.90;;;;;;4934273;29;20468;-72
2022/01/12 07:26:37;;;;;;;14.33;7.70;;;0.30;99.90;;;;;;4933948;29;20075;-72
2022/01/12 07:29:04;;;;;;;13.93;7.10;;;0.20;99.90;;;;;;4934327;29;20051;-74
2022/01/12 07:31:34;;;;;;;13.57;7.07;;;0.20;99.90;;;;;;4934179;29;20052;-72
2022/01/12 07:34:00;;;;;;;12.00;6.60;;;0.10;99.90;;;;;;4934234;29;20563;-71
2022/01/12 07:36:29;;;;;;;19.03;6.83;;;0.10;99.90;;;;;;4933999;29;20136;-71
2022/01/12 07:38:59;;;;;;;11.77;6.23;;;0.10;99.90;;;;;;4934265;29;20130;-72
2022/01/12 07:41:26;;;;;;;11.80;6.27;;;0.10;99.90;;;;;;4933740;29;20538;-71
2022/01/12 07:43:53;;;;;;;12.43;6.53;;;0.10;99.90;;;;;;4934140;29;20102;-71
2022/01/12 07:46:20;;;;;;;11.90;6.43;;;0.10;99.90;;;;;;4934372;29;20516;-71
2022/01/12 07:48:47;;;;;;;10.60;6.23;;;0.10;99.90;;;;;;4937990;29;20160;-72
2022/01/12 07:51:14;;;;;;;14.10;7.07;;;0.00;99.90;;;;;;4938090;29;20142;-72
2022/01/12 07:53:45;;;;;;;12.73;6.30;;;0.00;99.90;;;;;;4937786;29;20058;-72
2022/01/12 07:56:12;;;;;;;13.63;5.87;;;0.00;99.90;;;;;;4937872;29;20051;-72
2022/01/12 07:58:39;;;;;;;14.77;6.80;;;0.00;99.90;;;;;;4937681;29;20139;-72
2022/01/12 08:01:07;;;;;;;13.23;7.03;;;-0.10;99.90;;;;;;4937684;29;20044;-72
2022/01/12 08:03:34;;;;;;;11.93;6.20;;;-0.10;99.90;;;;;;4937705;29;20060;-71
2022/01/12 08:06:02;;;;;;;12.60;6.43;;;-0.10;99.90;;;;;;4937495;29;20134;-71
2022/01/12 08:08:28;;;;;;;12.50;6.60;;;-0.10;99.90;;;;;;4937500;29;20090;-71
2022/01/12 08:10:57;;;;;;;12.00;6.37;;;-0.10;99.90;;;;;;4937358;29;20094;-72
2022/01/12 08:13:24;;;;;;;11.63;6.60;;;-0.10;99.90;;;;;;4937421;29;20127;-71
2022/01/12 08:15:51;;;;;;;15.27;6.57;;;-0.10;99.90;;;;;;4937483;29;20130;-72
2022/01/12 08:18:20;;;;;;;12.50;6.63;;;0.00;99.90;;;;;;4937491;29;20130;-72
2022/01/12 08:20:53;;;;;;;14.23;7.43;;;0.00;99.90;;;;;;4937585;29;20139;-73
2022/01/12 08:23:20;;;;;;;13.07;7.33;;;0.00;99.90;;;;;;4937850;29;20167;-72
2022/01/12 08:25:47;;;;;;;13.97;7.13;;;0.00;99.90;;;;;;4939278;29;20089;-73
2022/01/12 08:28:16;;;;;;;12.83;6.33;;;0.10;99.90;;;;;;4938792;29;20059;-71
2022/01/12 08:30:44;;;;;;;13.30;7.10;;;0.10;99.90;;;;;;4937573;29;20075;-71
2022/01/12 08:33:15;;;;;;;12.03;6.70;;;0.00;99.90;;;;;;4937356;29;20102;-72
2022/01/12 08:35:42;;;;;;;13.77;6.60;;;0.00;99.90;;;;;;4937242;29;20056;-71
2022/01/12 08:38:12;;;;;;;11.67;6.00;;;0.10;99.90;;;;;;4937075;29;20079;-72
2022/01/12 08:40:41;;;;;;;11.73;6.10;;;0.10;99.90;;;;;;4937105;29;20078;-72
2022/01/12 08:43:09;;;;;;;13.10;6.03;;;0.10;99.90;;;;;;4936777;29;20095;-72
2022/01/12 08:45:37;;;;;;;12.03;6.37;;;0.20;99.90;;;;;;4937288;29;20127;-73
2022/01/12 08:48:05;;;;;;;12.20;6.10;;;0.20;99.90;;;;;;4937935;29;20491;-72
2022/01/12 08:50:32;;;;;;;16.40;7.20;;;0.50;99.90;;;;;;4939303;29;20115;-71
2022/01/12 08:52:59;;;;;;;13.67;6.80;;;0.40;99.90;;;;;;4937463;29;20547;-73
2022/01/12 08:55:26;;;;;;;13.27;6.90;;;0.40;99.90;;;;;;4938929;29;20135;-72
2022/01/12 08:57:58;;;;;;;12.00;6.80;;;0.40;99.90;;;;;;4940051;29;20134;-72
2022/01/12 09:00:28;;;;;;;12.57;6.90;;;0.50;99.90;;;;;;4940262;29;20477;-72
2022/01/12 09:03:03;;;;;;;11.87;6.40;;;0.60;99.90;;;;;;4940672;29;20131;-73
2022/01/12 09:05:30;;;;;;;13.43;6.23;;;0.60;99.90;;;;;;4939431;29;20420;-71
2022/01/12 09:07:59;;;;;;;11.97;6.33;;;0.60;99.90;;;;;;4939380;29;20141;-71
2022/01/12 09:10:26;;;;;;;12.27;6.20;;;0.60;99.90;;;;;;4938053;29;20517;-74
2022/01/12 09:12:53;;;;;;;12.20;6.37;;;0.60;99.90;;;;;;4938496;29;20501;-73
2022/01/12 09:15:25;;;;;;;11.70;6.13;;;0.70;99.90;;;;;;4939822;29;20548;-72
2022/01/12 09:17:53;;;;;;;11.67;5.77;;;0.70;99.90;;;;;;4939837;29;20055;-72
2022/01/12 09:20:21;;;;;;;11.80;6.07;;;0.50;99.90;;;;;;4939345;29;20120;-72
2022/01/12 09:22:49;;;;;;;11.87;5.40;;;0.60;99.90;;;;;;4939465;29;20592;-72
2022/01/12 09:25:16;;;;;;;11.73;6.23;;;0.70;99.90;;;;;;4938635;29;20127;-73
2022/01/12 09:27:43;;;;;;;11.00;5.93;;;0.70;99.90;;;;;;4936989;29;20083;-71
2022/01/12 09:30:15;;;;;;;9.73;5.23;;;0.80;99.90;;;;;;4937801;29;20130;-72
2022/01/12 09:32:42;;;;;;;11.60;5.53;;;0.80;99.90;;;;;;4938001;29;20107;-72
2022/01/12 09:35:12;;;;;;;10.03;5.53;;;1.00;99.90;;;;;;4938512;29;20079;-72
2022/01/12 09:37:40;;;;;;;11.37;6.07;;;1.10;99.90;;;;;;4940295;29;20083;-72
2022/01/12 09:40:11;;;;;;;13.83;6.90;;;1.30;99.90;;;;;;4939189;29;20071;-73
2022/01/12 09:42:38;;;;;;;15.23;7.00;;;1.40;99.90;;;;;;4939964;29;20134;-72
2022/01/12 09:45:07;;;;;;;13.57;6.83;;;1.50;99.90;;;;;;4939805;29;20079;-73
2022/01/12 09:47:34;;;;;;;13.97;6.07;;;1.60;99.90;;;;;;4961164;23;20051;-69
2022/01/12 09:50:02;;;;;;;12.87;6.73;;;1.70;99.90;;;;;;4955182;29;20466;-69
2022/01/12 09:52:29;;;;;;;11.40;6.13;;;1.90;99.90;;;;;;4954953;28;20126;-69
2022/01/12 09:55:07;;;;;;;12.57;6.10;;;1.70;99.90;;;;;;4954695;29;20082;-69
2022/01/12 09:57:34;;;;;;;10.53;5.70;;;1.60;99.90;;;;;;4954835;29;20130;-69
2022/01/12 10:00:01;;;;;;;11.27;5.87;;;1.60;99.90;;;;;;4954811;29;20139;-69
2022/01/12 10:02:29;;;;;;;10.83;6.43;;;1.50;99.90;;;;;;4954629;28;20082;-69
2022/01/12 10:05:06;;;;;;;12.17;6.07;;;1.50;99.90;;;;;;4954677;29;20096;-69
2022/01/12 10:07:33;;;;;;;12.05;5.72;;;1.50;99.90;;;;;;4947026;29;20093;-69
2022/01/12 10:10:04;;;;;;;11.23;6.03;;;1.90;99.90;;;;;;4954420;28;20138;-69
2022/01/12 10:12:33;;;;;;;28.90;6.73;;;2.40;99.90;;;;;;4955018;28;20059;-69
2022/01/12 10:15:03;;;;;;;13.23;5.90;;;3.00;99.90;;;;;;4954624;29;20098;-69
2022/01/12 10:17:34;;;;;;;11.20;6.57;;;3.30;99.90;;;;;;4954328;29;20133;-69
2022/01/12 10:20:10;;;;;;;12.27;5.80;;;4.70;99.90;;;;;;4954299;29;20135;-69
2022/01/12 10:22:39;;;;;;;12.32;5.82;;;7.40;99.90;;;;;;4954232;28;20086;-69
2022/01/12 10:25:16;;;;;;;11.18;5.38;;;9.10;99.90;;;;;;4954461;29;20133;-69
2022/01/12 10:27:45;;;;;;;10.02;5.75;;;7.20;99.90;;;;;;4954434;29;20126;-69
2022/01/12 10:30:21;;;;;;;9.82;5.47;;;5.70;99.90;;;;;;4954465;29;20150;-69
2022/01/12 10:32:59;;;;;;;10.32;5.38;;;4.80;99.90;;;;;;4954154;28;20146;-69
2022/01/12 10:35:27;;;;;;;10.20;5.32;;;4.30;99.90;;;;;;4958324;29;20107;-69
2022/01/12 10:37:53;;;;;;;13.20;5.30;;;3.90;99.90;;;;;;4960143;29;20077;-70
2022/01/12 10:40:20;;;;;;;10.03;5.17;;;3.30;99.90;;;;;;4954685;29;20134;-69
2022/01/12 10:42:49;;;;;;;10.63;5.77;;;2.70;99.90;;;;;;4953837;28;20134;-69
2022/01/12 10:45:19;;;;;;;10.20;4.93;;;2.70;99.90;;;;;;4953777;29;20134;-69
2022/01/12 10:47:47;;;;;;;11.70;6.13;;;3.00;99.90;;;;;;4936836;29;20075;-69
2022/01/12 10:50:13;;;;;;;12.57;5.53;;;2.60;99.90;;;;;;4953987;29;20126;-69
2022/01/12 10:52:52;;;;;;;13.03;6.63;;;2.70;99.90;;;;;;4953809;28;20147;-69
2022/01/12 10:55:22;;;;;;;15.47;7.37;;;2.70;99.90;;;;;;4953837;29;20065;-69
2022/01/12 10:57:56;;;;;;;10.67;5.97;;;2.90;99.90;;;;;;4953755;29;20090;-69
2022/01/12 11:00:25;;;;;;;12.33;6.57;;;4.00;99.90;;;;;;4954032;29;20066;-69
2022/01/12 11:02:53;;;;;;;11.37;5.93;;;4.10;99.90;;;;;;4953612;28;20582;-69
2022/01/12 11:05:22;;;;;;;13.23;6.80;;;3.70;99.90;;;;;;4953656;29;20139;-69
2022/01/12 11:07:49;;;;;;;11.87;6.20;;;4.00;99.90;;;;;;4953579;29;20051;-69
2022/01/12 11:10:17;;;;;;;10.90;6.23;;;6.40;99.90;;;;;;4953497;29;20586;-69
2022/01/12 11:12:44;;;;;;;10.63;6.15;;;7.50;99.90;;;;;;4953481;28;20058;-69
2022/01/12 11:15:18;;;;;;;11.43;5.25;;;11.30;99.90;;;;;;4953699;29;20055;-69
2022/01/12 11:17:46;;;;;;;11.65;6.28;;;13.90;98.00;;;;;;4953659;29;20106;-68
2022/01/12 11:20:18;;;;;;;10.98;6.53;;;14.10;95.80;;;;;;4953600;29;20138;-69
2022/01/12 11:22:57;;;;;;;10.70;6.07;;;14.40;96.20;;;;;;4953225;28;20062;-69
2022/01/12 11:25:30;;;;;;;10.18;6.47;;;13.70;95.30;;;;;;4953513;29;20130;-68
2022/01/12 11:28:09;;;;;;;12.35;6.65;;;15.30;95.00;;;;;;4954615;29;20134;-69
2022/01/12 11:30:40;;;;;;;10.48;6.47;;;15.30;94.80;;;;;;4953343;29;20485;-68
2022/01/12 11:33:10;;;;;;;11.07;6.65;;;13.70;95.40;;;;;;4953296;28;20142;-68
2022/01/12 11:35:40;;;;;;;11.40;6.90;;;12.90;96.20;;;;;;4953139;29;20138;-69
2022/01/12 11:38:08;;;;;;;12.43;6.43;;;12.10;97.20;;;;;;4953338;29;20424;-69
2022/01/12 11:40:38;;;;;;;12.52;7.35;;;13.50;96.60;;;;;;4953338;29;20363;-69
2022/01/12 11:43:18;;;;;;;10.65;6.60;;;12.70;95.60;;;;;;4953174;28;20134;-69
2022/01/12 11:45:47;;;;;;;10.40;5.57;;;14.70;95.10;;;;;;4953412;29;20130;-70
2022/01/12 11:48:14;;;;;;;13.63;6.32;;;13.90;94.20;;;;;;4953342;29;20090;-69
2022/01/12 11:50:41;;;;;;;10.85;6.53;;;12.70;94.80;;;;;;4953124;29;20051;-69
2022/01/12 11:53:07;;;;;;;11.40;5.70;;;13.60;96.30;;;;;;4953110;28;20058;-70
2022/01/12 11:55:38;;;;;;;11.35;6.50;;;13.20;96.10;;;;;;4953138;29;20058;-69
2022/01/12 11:58:05;;;;;;;13.15;6.82;;;10.20;97.60;;;;;;4953224;29;20050;-69
2022/01/12 12:00:39;;;;;;;11.73;6.43;;;11.30;98.50;;;;;;4953307;29;20047;-69
2022/01/12 12:03:16;;;;;;;13.07;6.53;;;10.80;98.80;;;;;;4953057;28;20054;-68
2022/01/12 12:05:43;;;;;;;9.48;5.78;;;11.60;97.60;;;;;;4952987;29;20059;-69
2022/01/12 12:08:10;;;;;;;12.95;7.20;;;10.90;97.80;;;;;;4953076;29;20078;-69
2022/01/12 12:10:39;;;;;;;10.35;6.55;;;11.10;97.80;;;;;;4952972;29;20143;-69
2022/01/12 12:13:07;;;;;;;11.07;6.40;;;11.20;97.70;;;;;;4952978;28;20134;-69
2022/01/12 12:15:35;;;;;;;11.82;7.07;;;9.30;99.80;;;;;;4952960;29;20504;-70
2022/01/12 12:18:04;;;;;;;11.40;7.15;;;9.30;99.90;;;;;;4953069;29;20512;-69
2022/01/12 12:20:34;;;;;;;9.45;5.55;;;9.00;99.90;;;;;;4953157;29;20146;-68
2022/01/12 12:23:01;;;;;;;9.27;6.03;;;8.70;99.90;;;;;;4952739;28;20055;-68
2022/01/12 12:25:29;;;;;;;12.88;6.32;;;8.30;99.90;;;;;;4953032;29;20134;-70
2022/01/12 12:27:58;;;;;;;11.40;6.10;;;7.80;99.90;;;;;;4953073;29;20146;-69
2022/01/12 12:30:26;;;;;;;13.30;7.05;;;7.60;99.90;;;;;;4953232;29;20078;-69
2022/01/12 12:32:56;;;;;;;11.65;6.78;;;7.00;99.90;;;;;;4953807;28;20138;-70
2022/01/12 12:35:25;;;;;;;11.52;6.68;;;6.70;99.90;;;;;;4956061;29;20082;-70
2022/01/12 12:37:56;;;;;;;13.82;6.82;;;6.50;99.90;;;;;;4956602;29;20048;-70
2022/01/12 12:40:26;;;;;;;10.40;6.43;;;6.40;99.90;;;;;;4956182;29;20466;-70
2022/01/12 12:43:02;;;;;;;11.57;6.45;;;6.10;99.90;;;;;;4956235;28;20142;-70
2022/01/12 12:45:43;;;;;;;10.82;5.97;;;5.30;99.90;;;;;;4956317;29;20563;-70
2022/01/12 12:48:12;;;;;;;13.63;7.03;;;5.30;99.90;;;;;;4956347;29;20479;-69
2022/01/12 12:50:39;;;;;;;13.38;7.05;;;4.90;99.90;;;;;;4955955;29;20138;-70
2022/01/12 12:53:08;;;;;;;14.82;6.97;;;4.90;99.90;;;;;;4956276;28;20051;-70
2022/01/12 12:55:38;;;;;;;14.10;7.60;;;5.00;99.90;;;;;;4956202;29;20081;-70
2022/01/12 12:58:06;;;;;;;13.77;6.90;;;5.40;99.90;;;;;;4955942;29;20139;-70
2022/01/12 13:00:35;;;;;;;14.77;6.80;;;5.00;99.90;;;;;;4948338;29;20595;-69
2022/01/12 13:03:04;;;;;;;11.98;6.72;;;4.90;99.90;;;;;;4955689;28;20055;-69
2022/01/12 13:05:33;;;;;;;13.43;7.00;;;5.10;99.90;;;;;;4955516;29;20135;-69
2022/01/12 13:08:00;;;;;;;13.75;6.80;;;4.60;99.90;;;;;;4955853;29;20138;-69
2022/01/12 13:10:30;;;;;;;15.87;7.10;;;4.70;99.90;;;;;;4955784;29;20504;-69
2022/01/12 13:12:59;;;;;;;12.63;6.82;;;4.80;99.90;;;;;;4955674;28;20150;-70
2022/01/12 13:15:28;;;;;;;11.68;6.78;;;4.60;99.90;;;;;;4956076;29;20059;-69
2022/01/12 13:18:00;;;;;;;13.85;7.00;;;4.80;99.90;;;;;;4955808;29;20047;-69
2022/01/12 13:23:14;;;;;;;14.38;7.30;;;4.60;99.90;;;;;;4955681;28;20073;-70
2022/01/12 13:25:42;;;;;;;13.85;6.35;;;4.60;99.90;;;;;;4956034;29;20101;-69
2022/01/12 13:28:10;;;;;;;15.18;6.82;;;4.50;99.90;;;;;;4955517;29;20130;-69
2022/01/12 13:30:49;;;;;;;15.82;7.28;;;4.50;99.90;;;;;;4955641;29;20047;-70
2022/01/12 13:33:25;;;;;;;12.50;6.95;;;4.60;99.90;;;;;;4955501;28;20101;-69
2022/01/12 13:35:52;;;;;;;12.30;6.30;;;4.30;99.90;;;;;;4955616;29;20555;-70
2022/01/12 13:38:27;;;;;;;10.63;6.03;;;4.40;99.90;;;;;;4955390;29;20134;-70
2022/01/12 13:40:56;;;;;;;11.85;6.13;;;4.60;99.90;;;;;;4955063;29;20063;-69
2022/01/12 13:43:24;;;;;;;13.50;7.20;;;4.60;99.90;;;;;;4955358;28;20052;-70
2022/01/12 13:46:00;;;;;;;13.25;6.60;;;4.60;99.90;;;;;;4954519;28;20468;-70
2022/01/12 13:48:30;;;;;;;11.95;6.47;;;4.60;99.90;;;;;;4955325;29;20058;-69
2022/01/12 13:50:59;;;;;;;13.13;7.07;;;4.50;99.90;;;;;;4955214;29;20102;-69
2022/01/12 13:53:34;;;;;;;12.77;6.63;;;4.30;99.90;;;;;;4955254;28;20283;-69
2022/01/12 13:56:03;;;;;;;12.05;6.03;;;4.20;99.90;;;;;;4955176;29;20134;-70
2022/01/12 13:58:31;;;;;;;11.90;6.07;;;4.30;99.90;;;;;;4954947;29;20460;-69